Fire Weather Observation
Issued by NWS Grand Junction, CO

Home | Current Version | Previous Version | Text Only | Print | Product List | Glossary Off
Versions: 1 2 3 4 5 6 7 8 9 10 11 12 13 14 15 16 17 18 19 20 21 22 23 24 25 26 27 28 29 30 31 32 33 34

000
SHUS65 KGJT 242013
FWOGJT

DAILY FIRE WEATHER OBSERVATION
NATIONAL WEATHER SERVICE GRAND JUNCTION CO
212 PM MDT WED AUG 24 2016

STATE OF THE WEATHER (W)               1
DRY BULB TEMPERATURE                   81   DEGREES FAHRENHEIT
RELATIVE HUMIDITY (RH)                 30   PERCENT
LIGHTNING ACTIVITY LEVEL
  (LAL - MIDNIGHT TO 2 PM)             1
WIND DIRECTION                         270  DEGREES (C IF CALM)
WIND SPEED                             6    MPH
MAX TEMP (2 PM - 2 PM)                 81   DEGREES FAHRENHEIT
MIN TEMP (2 PM - 2 PM)                 58   DEGREES FAHRENHEIT
MAX RH (2 PM - 2 PM)                   70   PERCENT
MIN RH (2 PM - 2 PM)                   30   PERCENT
PCPN DURATION                          0.0  HOURS
PCPN AMT (2 PM - 2 PM)                 0.0  INCHES
LAL (2 PM - 2 PM)                      2

$$

METAR KGJT 241953Z 28005KT 10SM CLR 27/08 A3011 RMK AO2 LTG DSNT
      N SLP129 T02720083



USA.gov is the U.S. government's official web portal to all federal, state and local government web resources and services.